createdAt,value
2018-03-22T00:01:17.306Z,91.30
2018-03-22T00:03:45.848Z,91.30
2018-03-22T00:06:13.347Z,91.20
2018-03-22T00:08:40.880Z,91.10
2018-03-22T00:11:09.163Z,91.10
2018-03-22T00:13:37.461Z,91.00
2018-03-22T00:16:04.956Z,91.00
2018-03-22T00:18:32.512Z,91.10
2018-03-22T00:21:00.011Z,91.10
2018-03-22T00:23:28.299Z,91.00
2018-03-22T00:25:55.817Z,91.00
2018-03-22T00:28:23.345Z,91.00
2018-03-22T00:30:50.922Z,91.00
2018-03-22T00:33:18.533Z,91.00
2018-03-22T00:35:46.815Z,91.00
2018-03-22T00:38:14.369Z,91.00
2018-03-22T00:40:42.627Z,90.80
2018-03-22T00:43:10.912Z,90.80
2018-03-22T00:45:38.532Z,90.80
2018-03-22T00:48:06.040Z,90.70
2018-03-22T00:50:33.536Z,90.60
2018-03-22T00:53:01.110Z,90.50
2018-03-22T00:55:28.632Z,90.50
2018-03-22T00:57:56.218Z,90.40
2018-03-22T01:00:23.735Z,90.20
2018-03-22T01:02:51.255Z,90.20
2018-03-22T01:05:18.748Z,90.20
2018-03-22T01:07:46.260Z,90.30
2018-03-22T01:10:13.756Z,90.70
2018-03-22T01:12:42.047Z,90.50
2018-03-22T01:15:09.567Z,90.50
2018-03-22T01:17:37.178Z,90.60
2018-03-22T01:20:04.678Z,90.60
2018-03-22T01:22:32.213Z,90.70
2018-03-22T01:24:59.787Z,90.90
2018-03-22T01:27:27.316Z,90.90
2018-03-22T01:29:54.830Z,91.00
2018-03-22T01:32:23.114Z,91.10
2018-03-22T01:34:51.356Z,91.20
2018-03-22T01:37:18.964Z,91.20
2018-03-22T01:39:47.252Z,91.10
2018-03-22T01:42:14.798Z,91.10
2018-03-22T01:44:43.069Z,91.30
2018-03-22T01:47:11.512Z,91.30
2018-03-22T01:49:39.004Z,91.30
2018-03-22T01:52:07.336Z,91.40
2018-03-22T01:54:34.876Z,91.30
2018-03-22T01:57:02.368Z,91.30
2018-03-22T01:59:29.927Z,91.40
2018-03-22T02:01:57.436Z,91.50
2018-03-22T02:04:24.974Z,91.50
2018-03-22T02:06:53.239Z,91.30
2018-03-22T02:09:20.823Z,91.30
2018-03-22T02:11:48.380Z,91.20
2018-03-22T02:14:15.940Z,91.20
2018-03-22T02:16:43.434Z,91.20
2018-03-22T02:19:10.965Z,91.30
2018-03-22T02:21:38.455Z,91.40
2018-03-22T02:24:05.975Z,91.40
2018-03-22T02:26:33.482Z,91.50
2018-03-22T02:29:01.010Z,91.80
2018-03-22T02:31:28.514Z,91.50
2018-03-22T02:33:56.111Z,91.60
2018-03-22T02:36:25.246Z,91.70
2018-03-22T02:38:53.570Z,91.60
2018-03-22T02:41:21.833Z,91.60
2018-03-22T02:43:49.364Z,91.60
2018-03-22T02:46:16.881Z,91.80
2018-03-22T02:48:44.488Z,91.60
2018-03-22T02:51:11.988Z,91.70
2018-03-22T02:53:39.481Z,91.60
2018-03-22T02:56:06.969Z,92.00
2018-03-22T02:58:34.496Z,91.60
2018-03-22T03:01:02.040Z,91.60
2018-03-22T03:03:29.585Z,91.70
2018-03-22T03:05:57.846Z,91.80
2018-03-22T03:08:26.118Z,91.70
2018-03-22T03:10:54.377Z,91.70
2018-03-22T03:13:21.897Z,91.60
2018-03-22T03:15:49.383Z,91.70
2018-03-22T03:18:16.905Z,91.70
2018-03-22T03:20:44.424Z,91.80
2018-03-22T03:23:11.938Z,91.70
2018-03-22T03:25:39.444Z,91.40
2018-03-22T03:28:06.979Z,91.50
2018-03-22T03:30:34.482Z,91.40
2018-03-22T03:33:02.134Z,91.20
2018-03-22T03:35:30.392Z,91.20
2018-03-22T03:37:57.932Z,91.10
2018-03-22T03:40:25.429Z,91.10
2018-03-22T03:42:53.707Z,91.10
2018-03-22T03:45:22.114Z,91.00
2018-03-22T03:47:49.644Z,91.00
2018-03-22T03:50:17.960Z,91.10
2018-03-22T03:52:45.496Z,91.10
2018-03-22T03:55:12.991Z,91.20
2018-03-22T03:57:40.547Z,91.10
2018-03-22T04:00:08.028Z,91.20
2018-03-22T04:02:35.555Z,91.40
2018-03-22T04:05:03.059Z,91.30
2018-03-22T04:07:31.347Z,91.00
2018-03-22T04:09:59.609Z,90.90
2018-03-22T04:12:27.171Z,90.90
2018-03-22T04:14:55.440Z,91.00
2018-03-22T04:17:22.956Z,91.00
2018-03-22T04:19:50.473Z,91.00
2018-03-22T04:22:18.753Z,91.30
2018-03-22T04:24:47.031Z,91.20
2018-03-22T04:27:14.546Z,91.20
2018-03-22T04:29:42.097Z,91.10
2018-03-22T04:32:09.718Z,91.10
2018-03-22T04:34:37.963Z,91.00
2018-03-22T04:37:05.488Z,91.00
2018-03-22T04:39:32.994Z,91.00
2018-03-22T04:42:01.281Z,91.00
2018-03-22T04:44:29.538Z,91.00
2018-03-22T04:46:57.833Z,91.40
2018-03-22T04:49:26.150Z,91.20
2018-03-22T04:51:53.664Z,91.20
2018-03-22T04:54:21.192Z,91.30
2018-03-22T04:56:48.706Z,91.40
2018-03-22T04:59:16.246Z,91.50
2018-03-22T05:01:44.619Z,91.60
2018-03-22T05:04:12.997Z,91.60
2018-03-22T05:06:41.279Z,91.70
2018-03-22T05:09:09.667Z,91.60
2018-03-22T05:11:37.164Z,91.60
2018-03-22T05:14:04.687Z,91.60
2018-03-22T05:16:32.190Z,91.70
2018-03-22T05:18:59.737Z,91.70
2018-03-22T05:21:27.248Z,91.80
2018-03-22T05:23:55.528Z,91.80
2018-03-22T05:26:23.081Z,91.80
2018-03-22T05:28:51.399Z,91.80
2018-03-22T05:31:18.895Z,91.80
2018-03-22T05:33:46.517Z,91.70
2018-03-22T05:36:14.166Z,91.70
2018-03-22T05:38:41.901Z,91.70
2018-03-22T05:41:10.236Z,91.70
2018-03-22T05:43:37.855Z,91.70
2018-03-22T05:46:06.131Z,91.80
2018-03-22T05:48:33.757Z,91.80
2018-03-22T05:51:01.388Z,91.80
2018-03-22T05:53:28.896Z,91.80
2018-03-22T05:55:57.177Z,91.80
2018-03-22T05:58:25.466Z,91.90
2018-03-22T06:00:53.011Z,91.90
2018-03-22T06:03:21.287Z,91.90
2018-03-22T06:05:49.561Z,91.70
2018-03-22T06:08:17.126Z,91.70
2018-03-22T06:10:45.397Z,92.10
2018-03-22T06:13:12.980Z,92.00
2018-03-22T06:15:41.360Z,92.40
2018-03-22T06:18:08.888Z,92.40
2018-03-22T06:20:37.248Z,92.80
2018-03-22T06:23:04.829Z,92.80
2018-03-22T06:25:33.088Z,93.10
2018-03-22T06:28:01.471Z,93.70
2018-03-22T06:30:29.023Z,93.30
2018-03-22T06:32:56.555Z,93.60
2018-03-22T06:35:24.162Z,93.90
2018-03-22T06:38:02.347Z,94.60
2018-03-22T06:40:29.994Z,94.60
2018-03-22T06:42:57.522Z,94.80
2018-03-22T06:45:25.012Z,95.00
2018-03-22T06:47:52.612Z,95.50
2018-03-22T06:50:20.120Z,95.50
2018-03-22T06:52:47.763Z,95.80
2018-03-22T06:55:15.265Z,95.90
2018-03-22T06:57:42.794Z,96.10
2018-03-22T07:00:10.316Z,96.60
2018-03-22T07:02:37.850Z,96.50
2018-03-22T07:05:05.407Z,96.40
2018-03-22T07:07:33.730Z,96.50
2018-03-22T07:10:01.206Z,96.50
2018-03-22T07:12:29.858Z,96.80
2018-03-22T07:14:58.203Z,96.90
2018-03-22T07:17:26.494Z,97.00
2018-03-22T07:19:54.069Z,97.00
2018-03-22T07:22:21.600Z,97.10
2018-03-22T07:24:49.094Z,97.50
2018-03-22T07:27:16.683Z,97.60
2018-03-22T07:29:44.274Z,97.80
2018-03-22T07:32:11.851Z,97.90
2018-03-22T07:34:40.109Z,98.30
2018-03-22T07:37:08.393Z,98.50
2018-03-22T07:39:36.644Z,98.50
2018-03-22T07:42:04.176Z,98.50
2018-03-22T07:44:37.308Z,98.60
2018-03-22T07:47:04.829Z,98.90
2018-03-22T07:49:32.338Z,99.10
2018-03-22T07:51:59.905Z,99.10
2018-03-22T07:54:28.159Z,99.60
2018-03-22T07:56:55.822Z,99.50
2018-03-22T07:59:23.328Z,99.60
2018-03-22T08:01:50.862Z,99.60
2018-03-22T08:04:19.147Z,99.80
2018-03-22T08:06:46.727Z,99.80
2018-03-22T08:09:14.173Z,99.80
2018-03-22T08:11:41.712Z,99.60
2018-03-22T08:14:09.974Z,99.90
2018-03-22T08:16:37.659Z,99.90
2018-03-22T08:19:05.235Z,99.80
2018-03-22T08:21:32.747Z,99.90
2018-03-22T08:24:01.051Z,99.70
2018-03-22T08:26:29.442Z,99.60
2018-03-22T08:28:56.946Z,99.60
2018-03-22T08:31:24.530Z,99.50
2018-03-22T08:33:52.075Z,99.50
2018-03-22T08:36:19.686Z,99.90
2018-03-22T08:38:47.208Z,99.50
2018-03-22T08:41:15.511Z,99.50
2018-03-22T08:43:43.060Z,99.40
2018-03-22T08:46:10.599Z,99.20
2018-03-22T08:48:38.104Z,99.10
2018-03-22T08:51:05.616Z,99.10
2018-03-22T08:53:33.916Z,99.10
2018-03-22T08:56:01.510Z,99.10
2018-03-22T08:58:29.719Z,99.20
2018-03-22T09:00:57.261Z,99.20
2018-03-22T09:03:24.887Z,99.20
2018-03-22T09:05:52.448Z,98.90
2018-03-22T09:08:19.958Z,98.60
2018-03-22T09:10:47.532Z,98.50
2018-03-22T09:13:15.030Z,98.40
2018-03-22T09:15:42.543Z,98.40
2018-03-22T09:18:10.841Z,98.10
2018-03-22T09:20:38.418Z,98.10
2018-03-22T09:23:05.952Z,98.10
2018-03-22T09:25:34.244Z,98.30
2018-03-22T09:28:01.737Z,98.30
2018-03-22T09:30:29.331Z,98.50
2018-03-22T09:32:57.608Z,98.30
2018-03-22T09:35:26.012Z,98.50
2018-03-22T09:37:53.535Z,98.50
2018-03-22T09:40:21.070Z,98.70
2018-03-22T09:42:48.738Z,98.90
2018-03-22T09:45:16.582Z,99.30
2018-03-22T09:47:44.106Z,99.00
2018-03-22T09:50:12.460Z,99.20
2018-03-22T09:52:39.967Z,99.10
2018-03-22T09:55:07.515Z,99.00
2018-03-22T09:57:34.994Z,99.10
2018-03-22T10:00:02.628Z,99.30
2018-03-22T10:02:30.170Z,99.40
2018-03-22T10:04:58.568Z,99.70
2018-03-22T10:07:26.123Z,99.70
2018-03-22T10:09:53.651Z,99.50
2018-03-22T10:12:21.165Z,99.40
2018-03-22T10:14:48.698Z,99.50
2018-03-22T10:17:16.242Z,99.60
2018-03-22T10:19:43.723Z,99.70
2018-03-22T10:22:11.275Z,99.60
2018-03-22T10:24:38.774Z,99.80
2018-03-22T10:27:06.318Z,99.70
2018-03-22T10:29:33.819Z,99.80
2018-03-22T10:32:01.371Z,99.90
2018-03-22T10:34:28.871Z,99.90
2018-03-22T10:36:56.395Z,99.90
2018-03-22T10:39:24.057Z,99.90
2018-03-22T10:41:51.581Z,99.90
2018-03-22T10:44:19.077Z,99.90
2018-03-22T10:46:49.699Z,99.90
2018-03-22T10:49:17.187Z,99.90
2018-03-22T10:51:45.477Z,99.90
2018-03-22T10:54:13.027Z,99.90
2018-03-22T10:56:40.790Z,99.90
2018-03-22T10:59:09.060Z,99.90
2018-03-22T11:01:42.871Z,99.90
2018-03-22T11:04:11.236Z,99.90
2018-03-22T11:06:38.816Z,99.90
2018-03-22T11:09:06.320Z,99.90
2018-03-22T11:11:35.514Z,99.90
2018-03-22T11:14:04.095Z,99.90
2018-03-22T11:16:31.683Z,99.90
2018-03-22T11:18:59.164Z,99.90
2018-03-22T11:21:27.490Z,99.90
2018-03-22T11:23:55.103Z,99.90
2018-03-22T11:26:23.485Z,99.90
2018-03-22T11:28:51.073Z,99.90
2018-03-22T11:31:18.586Z,99.90
2018-03-22T11:33:46.176Z,99.90
2018-03-22T11:36:13.815Z,99.90
2018-03-22T11:38:42.114Z,99.90
2018-03-22T11:41:09.631Z,99.90
2018-03-22T11:43:37.140Z,99.90
2018-03-22T11:46:04.659Z,99.90
2018-03-22T11:48:32.192Z,99.90
2018-03-22T11:50:59.745Z,99.90
2018-03-22T11:53:27.287Z,99.90
2018-03-22T11:55:54.822Z,99.90
2018-03-22T11:58:22.452Z,99.90
2018-03-22T12:00:49.967Z,99.90
2018-03-22T12:03:17.493Z,99.90
2018-03-22T12:05:44.993Z,99.90
2018-03-22T12:08:12.551Z,99.90
2018-03-22T12:10:40.045Z,99.90
2018-03-22T12:13:07.577Z,99.90
2018-03-22T12:15:35.182Z,99.90
2018-03-22T12:18:03.463Z,99.90
2018-03-22T12:20:31.862Z,99.90
2018-03-22T12:22:59.342Z,99.90
2018-03-22T12:25:26.962Z,99.90
2018-03-22T12:27:55.352Z,99.90
2018-03-22T12:30:22.852Z,99.90
2018-03-22T12:32:50.369Z,99.90
2018-03-22T12:35:17.856Z,99.90
2018-03-22T12:37:45.345Z,99.90
2018-03-22T12:40:12.859Z,99.90
2018-03-22T12:42:40.405Z,99.90
2018-03-22T12:45:07.918Z,99.90
2018-03-22T12:47:35.440Z,99.90
2018-03-22T12:50:02.982Z,99.90
2018-03-22T12:52:31.329Z,99.90
2018-03-22T12:54:58.822Z,99.90
2018-03-22T12:57:26.341Z,99.90
2018-03-22T12:59:54.595Z,99.90
2018-03-22T13:02:22.117Z,99.90
2018-03-22T13:04:49.612Z,99.90
2018-03-22T13:07:17.143Z,99.90
2018-03-22T13:09:44.626Z,99.90
2018-03-22T13:12:12.147Z,99.90
2018-03-22T13:14:39.677Z,99.90
2018-03-22T13:17:07.996Z,99.90
2018-03-22T13:19:35.700Z,99.90
2018-03-22T13:22:04.002Z,99.90
2018-03-22T13:24:32.295Z,99.90
2018-03-22T13:26:59.837Z,99.90
2018-03-22T13:29:28.102Z,99.90
2018-03-22T13:31:56.392Z,99.90
2018-03-22T13:34:23.904Z,99.90
2018-03-22T13:36:51.464Z,99.90
2018-03-22T13:39:18.999Z,99.90
2018-03-22T13:41:46.515Z,99.90
2018-03-22T13:44:14.044Z,99.90
2018-03-22T13:46:42.744Z,99.90
2018-03-22T13:49:10.320Z,99.90
2018-03-22T13:51:38.652Z,99.90
2018-03-22T13:54:06.147Z,99.90
2018-03-22T13:56:34.448Z,99.90
2018-03-22T13:59:02.058Z,99.90
2018-03-22T14:01:29.583Z,99.90
2018-03-22T14:03:57.256Z,99.90
2018-03-22T14:06:24.827Z,99.90
2018-03-22T14:08:52.314Z,99.90
2018-03-22T14:11:19.884Z,99.90
2018-03-22T14:13:48.149Z,99.90
2018-03-22T14:16:15.676Z,99.90
2018-03-22T14:18:43.175Z,99.90
2018-03-22T14:21:11.473Z,99.90
2018-03-22T14:23:38.976Z,99.90
2018-03-22T14:26:06.567Z,99.90
2018-03-22T14:28:34.148Z,99.90
2018-03-22T14:31:02.422Z,99.90
2018-03-22T14:33:30.727Z,99.90
2018-03-22T14:35:58.754Z,99.90
2018-03-22T14:38:26.270Z,99.90
2018-03-22T14:40:53.772Z,99.90
2018-03-22T14:43:22.168Z,99.90
2018-03-22T14:45:50.467Z,99.90
2018-03-22T14:48:18.079Z,99.90
2018-03-22T14:50:45.572Z,99.90
2018-03-22T14:53:13.122Z,99.90
2018-03-22T14:55:41.380Z,99.90
2018-03-22T14:58:09.709Z,99.90
2018-03-22T15:00:37.232Z,99.90
2018-03-22T15:03:04.802Z,99.90
2018-03-22T15:05:32.304Z,99.90
2018-03-22T15:07:59.858Z,99.90
2018-03-22T15:10:27.434Z,99.90
2018-03-22T15:12:55.649Z,99.90
2018-03-22T15:15:23.147Z,99.90
2018-03-22T15:17:50.682Z,99.90
2018-03-22T15:20:18.222Z,99.90
2018-03-22T15:22:45.777Z,99.90
2018-03-22T15:25:14.039Z,99.90
2018-03-22T15:27:42.331Z,99.90
2018-03-22T15:30:09.901Z,99.90
2018-03-22T15:32:37.494Z,99.90
2018-03-22T15:35:05.018Z,99.90
2018-03-22T15:37:33.311Z,99.90
2018-03-22T15:40:00.920Z,99.90
2018-03-22T15:42:28.464Z,99.90
2018-03-22T15:44:56.024Z,99.90
2018-03-22T15:47:23.538Z,99.90
2018-03-22T15:49:51.199Z,99.90
2018-03-22T15:52:18.736Z,99.90
2018-03-22T15:54:47.031Z,99.90
2018-03-22T15:57:14.545Z,99.90
2018-03-22T15:59:42.155Z,99.90
2018-03-22T16:02:09.830Z,99.90
2018-03-22T16:04:37.488Z,99.90
2018-03-22T16:07:05.027Z,99.90
2018-03-22T16:09:33.327Z,99.90
2018-03-22T16:12:00.847Z,99.90
2018-03-22T16:14:29.136Z,99.90
2018-03-22T16:16:56.672Z,99.90
2018-03-22T16:19:25.097Z,99.90
2018-03-22T16:21:53.341Z,99.90
2018-03-22T16:24:21.631Z,99.90
2018-03-22T16:26:49.218Z,99.90
2018-03-22T16:29:16.726Z,99.90
2018-03-22T16:31:44.342Z,99.90
2018-03-22T16:34:11.862Z,99.90
2018-03-22T16:36:40.219Z,99.90
2018-03-22T16:39:07.735Z,99.90
2018-03-22T16:41:35.362Z,99.90
2018-03-22T16:44:03.456Z,99.90
2018-03-22T16:46:31.333Z,99.90
2018-03-22T16:48:58.851Z,99.90
2018-03-22T16:51:27.418Z,99.90
2018-03-22T16:53:55.869Z,99.90
2018-03-22T16:56:23.440Z,99.90
2018-03-22T16:58:51.036Z,99.90
2018-03-22T17:01:19.300Z,99.90
2018-03-22T17:03:47.016Z,99.90
2018-03-22T17:06:14.569Z,99.90
2018-03-22T17:08:42.111Z,99.90
2018-03-22T17:11:09.726Z,99.90
2018-03-22T17:13:37.399Z,99.90
2018-03-22T17:16:04.853Z,99.90
2018-03-22T17:18:32.440Z,99.90
2018-03-22T17:21:00.750Z,99.90
2018-03-22T17:23:28.499Z,99.90
2018-03-22T17:25:56.058Z,99.90
2018-03-22T17:28:23.584Z,99.90
2018-03-22T17:30:52.729Z,99.90
2018-03-22T17:33:20.278Z,99.90
2018-03-22T17:35:47.815Z,99.90
2018-03-22T17:38:16.132Z,99.90
2018-03-22T17:40:43.684Z,99.90
2018-03-22T17:43:11.444Z,99.90
2018-03-22T17:45:38.965Z,99.90
2018-03-22T17:48:06.541Z,99.90
2018-03-22T17:50:35.500Z,99.90
2018-03-22T17:53:03.042Z,99.90
2018-03-22T17:55:30.578Z,99.90
2018-03-22T17:57:58.147Z,99.90
2018-03-22T18:00:25.641Z,99.90
2018-03-22T18:02:53.191Z,99.90
2018-03-22T18:05:20.752Z,99.90
2018-03-22T18:07:48.352Z,99.90
2018-03-22T18:10:15.926Z,99.90
2018-03-22T18:12:43.444Z,99.90
2018-03-22T18:15:11.759Z,99.90
2018-03-22T18:17:39.321Z,99.90
2018-03-22T18:20:06.924Z,99.90
2018-03-22T18:22:34.436Z,99.90
2018-03-22T18:25:01.970Z,99.90
2018-03-22T18:27:30.364Z,99.90
2018-03-22T18:30:09.370Z,99.90
2018-03-22T18:32:38.188Z,99.90
2018-03-22T18:35:05.704Z,99.90
2018-03-22T18:37:33.305Z,99.90
2018-03-22T18:40:00.831Z,99.90
2018-03-22T18:42:29.198Z,99.90
2018-03-22T18:44:56.773Z,99.90
2018-03-22T18:47:25.066Z,99.90
2018-03-22T18:49:53.334Z,99.90
2018-03-22T18:52:21.619Z,99.90
2018-03-22T18:54:49.127Z,99.90
2018-03-22T18:57:16.653Z,99.90
2018-03-22T18:59:44.181Z,99.90
2018-03-22T19:02:12.647Z,99.90
2018-03-22T19:04:40.207Z,99.90
2018-03-22T19:07:07.890Z,99.90
2018-03-22T19:09:36.270Z,99.90
2018-03-22T19:12:03.841Z,99.90
2018-03-22T19:14:31.364Z,99.90
2018-03-22T19:16:58.896Z,99.90
2018-03-22T19:19:26.501Z,99.90
2018-03-22T19:21:54.767Z,99.90
2018-03-22T19:24:23.065Z,99.90
2018-03-22T19:27:01.517Z,99.90
2018-03-22T19:29:29.139Z,99.90
2018-03-22T19:31:57.655Z,99.90
2018-03-22T19:34:25.289Z,99.90
2018-03-22T19:36:53.104Z,99.90
2018-03-22T19:39:20.628Z,99.90
2018-03-22T19:41:48.628Z,99.90
2018-03-22T19:44:16.350Z,99.90
2018-03-22T19:46:43.917Z,99.90
2018-03-22T19:49:11.510Z,99.90
2018-03-22T19:51:39.088Z,99.90
2018-03-22T19:54:06.704Z,99.90
2018-03-22T19:56:35.716Z,99.90
2018-03-22T19:59:03.265Z,99.90
2018-03-22T20:01:31.073Z,99.90
2018-03-22T20:04:00.330Z,99.90
2018-03-22T20:06:29.950Z,99.90
2018-03-22T20:08:59.214Z,99.90
2018-03-22T20:11:26.772Z,99.90
2018-03-22T20:13:54.323Z,99.90
2018-03-22T20:16:21.831Z,99.90
2018-03-22T20:18:49.411Z,99.90
2018-03-22T20:21:17.814Z,99.90
2018-03-22T20:23:46.197Z,99.90
2018-03-22T20:26:13.912Z,99.90
2018-03-22T20:28:43.466Z,99.90
2018-03-22T20:31:11.761Z,99.90
2018-03-22T20:33:39.383Z,99.90
2018-03-22T20:36:06.915Z,99.90
2018-03-22T20:38:34.715Z,99.90
2018-03-22T20:41:04.984Z,99.90
2018-03-22T20:43:32.519Z,99.90
2018-03-22T20:46:00.066Z,99.90
2018-03-22T20:48:29.264Z,99.90
2018-03-22T20:50:56.785Z,99.90
2018-03-22T20:53:24.384Z,99.90
2018-03-22T20:55:52.777Z,99.90
2018-03-22T20:58:20.806Z,99.90
2018-03-22T21:00:48.379Z,99.90
2018-03-22T21:03:15.960Z,99.90
2018-03-22T21:05:43.540Z,99.90
2018-03-22T21:08:11.281Z,99.90
2018-03-22T21:10:38.809Z,99.90
2018-03-22T21:13:07.178Z,99.90
2018-03-22T21:15:34.676Z,99.90
2018-03-22T21:18:02.237Z,99.90
2018-03-22T21:20:29.817Z,99.90
2018-03-22T21:22:57.903Z,99.90
2018-03-22T21:25:25.439Z,99.90
2018-03-22T21:27:54.452Z,99.90
2018-03-22T21:30:21.959Z,99.90
2018-03-22T21:32:53.207Z,99.90
2018-03-22T21:35:21.540Z,99.90
2018-03-22T21:37:49.109Z,99.90
2018-03-22T21:40:16.621Z,99.90
2018-03-22T21:42:44.174Z,99.90
2018-03-22T21:45:11.736Z,99.90
2018-03-22T21:47:39.272Z,99.90
2018-03-22T21:50:07.617Z,99.90
2018-03-22T21:52:45.138Z,99.90
2018-03-22T21:55:13.420Z,99.90
2018-03-22T21:57:41.937Z,99.90
2018-03-22T22:00:09.440Z,99.90
2018-03-22T22:02:36.991Z,99.90
2018-03-22T22:05:04.515Z,99.90
2018-03-22T22:07:32.065Z,99.90
2018-03-22T22:09:59.557Z,99.90
2018-03-22T22:12:27.160Z,99.90
2018-03-22T22:14:55.419Z,99.90
2018-03-22T22:17:22.917Z,99.90
2018-03-22T22:19:50.446Z,99.90
2018-03-22T22:22:17.931Z,99.90
2018-03-22T22:24:45.479Z,99.90
2018-03-22T22:27:13.065Z,99.90
2018-03-22T22:29:40.668Z,99.90
2018-03-22T22:32:19.041Z,99.90
2018-03-22T22:34:46.591Z,99.90
2018-03-22T22:37:14.087Z,99.90
2018-03-22T22:39:41.725Z,99.90
2018-03-22T22:42:09.231Z,99.90
2018-03-22T22:44:36.814Z,99.90
2018-03-22T22:47:05.151Z,99.90
2018-03-22T22:49:32.689Z,99.90
2018-03-22T22:52:00.199Z,99.90
2018-03-22T22:54:28.507Z,99.90
2018-03-22T22:56:56.032Z,99.90
2018-03-22T22:59:24.378Z,99.90
2018-03-22T23:01:51.918Z,99.90
2018-03-22T23:04:20.264Z,99.90
2018-03-22T23:06:47.788Z,99.90
2018-03-22T23:09:15.381Z,99.90
2018-03-22T23:11:43.679Z,99.90
2018-03-22T23:14:11.256Z,99.90
2018-03-22T23:16:38.800Z,99.90
2018-03-22T23:19:06.293Z,99.90
2018-03-22T23:21:33.827Z,99.90
2018-03-22T23:24:01.328Z,99.90
2018-03-22T23:26:29.580Z,99.90
2018-03-22T23:28:57.156Z,99.90
2018-03-22T23:31:25.265Z,99.90
2018-03-22T23:33:52.844Z,99.90
2018-03-22T23:36:20.367Z,99.90
2018-03-22T23:38:48.746Z,99.90
2018-03-22T23:41:17.078Z,99.90
2018-03-22T23:43:44.566Z,99.90
2018-03-22T23:46:12.084Z,99.90
2018-03-22T23:48:39.762Z,99.90
2018-03-22T23:51:07.267Z,99.90
2018-03-22T23:53:34.913Z,99.90
2018-03-22T23:56:03.178Z,99.90
2018-03-22T23:58:30.713Z,99.90
